Data for 01/22/2006

Time Sea-Level Adjusted Pressure Absolute Pressure Temperature Relative Humidity Dew Point   
(mb) (inHg) (mb) (inHg) (C) (F) (%) (C) (F)
00:05 1023 30.21 852 25.16 -7.3 18.8 65 -12.8 8.9
00:10 1023 30.21 852 25.16 -7.1 19.2 66 -12.4 9.7
00:15 1023 30.21 852 25.16 -7.1 19.2 65 -12.6 9.2
00:20 1023 30.21 852 25.16 -7.6 18.4 66 -12.8 8.9
00:25 1023 30.21 852 25.16 -7.8 18.1 66 -13 8.7
00:30 1023 30.21 852 25.16 -7.3 18.9 63 -13.1 8.4
00:35 1023 30.21 852 25.16 -7.4 18.7 67 -12.6 9.3
00:40 1023 30.21 852 25.16 -7.8 18.1 67 -12.9 8.8
00:45 1023 30.21 852 25.16 -7.7 18.1 68 -12.7 9.2
00:50 1023 30.21 852 25.16 -7.9 17.7 68 -12.8 8.9
00:55 1023 30.21 852 25.16 -8.2 17.2 68 -13.1 8.4
01:00 1023 30.21 852 25.16 -8.2 17.3 68 -13.1 8.4
01:05 1023 30.21 852 25.16 -8.3 17.1 68 -13.2 8.2
01:10 1023 30.21 852 25.16 -8.3 17.1 68 -13.1 8.4
01:15 1023 30.21 852 25.16 -8.2 17.3 68 -13.1 8.4
01:20 1023 30.21 852 25.16 -8.1 17.4 67 -13.3 8.1
01:25 1023 30.21 852 25.16 -8.2 17.2 67 -13.4 7.9
01:30 1023 30.21 852 25.16 -8.2 17.2 67 -13.4 7.9
01:35 1023 30.21 852 25.16 -8.2 17.2 68 -13.2 8.2
01:40 1023 30.21 852 25.16 -8.3 17.1 66 -13.5 7.7
01:45 1023 30.21 852 25.16 -8 17.6 66 -13.2 8.2
01:50 1023 30.21 852 25.16 -8.4 17 68 -13.3 8.1
01:55 1023 30.21 852 25.16 -8.5 16.7 69 -13.2 8.2
02:00 1023 30.21 853 25.19 -8.5 16.8 69 -13.1 8.5
02:05 1023 30.21 853 25.19 -8.3 17.1 68 -13.2 8.2
02:10 1023 30.21 853 25.19 -8.5 16.8 67 -13.5 7.8
02:15 1023 30.21 853 25.19 -9.2 15.4 74 -13 8.5
02:20 1023 30.21 853 25.19 -9.1 15.7 70 -13.6 7.5
02:25 1023 30.21 853 25.19 -8.7 16.3 68 -13.6 7.6
02:30 1023 30.21 853 25.19 -8.6 16.5 70 -13.1 8.3
02:35 1023 30.21 853 25.19 -8.8 16.3 70 -13.3 8
02:40 1023 30.21 853 25.19 -8.8 16.1 67 -13.9 6.9
02:45 1023 30.21 853 25.19 -9.3 15.3 69 -13.9 7
02:50 1023 30.21 853 25.19 -8.9 16 67 -13.9 7
02:55 1024 30.24 853 25.19 -8.6 16.6 66 -13.8 7.1
03:00 1024 30.24 853 25.19 -8.7 16.4 66 -13.9 7
03:05 1024 30.24 853 25.19 -8.7 16.4 66 -13.9 7
03:10 1024 30.24 853 25.19 -8.7 16.4 65 -14 6.7
03:15 1024 30.24 853 25.19 -8.5 16.6 66 -13.9 7.1
03:20 1024 30.24 853 25.19 -8.6 16.5 66 -13.9 6.9
03:25 1024 30.24 853 25.19 -8.8 16.2 65 -14.3 6.3
03:30 1024 30.24 853 25.19 -9 15.8 66 -14.3 6.2
03:35 1024 30.24 853 25.19 -9.4 15.2 66 -14.5 5.9
03:40 1024 30.24 853 25.19 -9.5 14.8 68 -14.4 6
03:45 1024 30.24 853 25.19 -9.5 14.9 72 -13.7 7.4
03:50 1024 30.24 853 25.19 -9.2 15.5 71 -13.5 7.8
03:55 1024 30.24 853 25.19 -9.1 15.7 69 -13.7 7.3
04:00 1024 30.24 853 25.19 -9.1 15.6 70 -13.7 7.4
04:05 1024 30.24 853 25.19 -9 15.8 72 -13.1 8.5
04:10 1024 30.24 853 25.19 -8.1 17.5 68 -13.1 8.5
04:15 1024 30.24 853 25.19 -8.1 17.5 66 -13.3 8
04:20 1024 30.24 853 25.19 -8 17.7 64 -13.6 7.5
04:25 1024 30.24 853 25.19 -8.3 17 69 -13 8.6
04:30 1024 30.24 853 25.19 -8.5 16.7 66 -13.7 7.3
04:35 1024 30.24 853 25.19 -8.6 16.5 66 -13.9 7
04:40 1024 30.24 853 25.19 -8.8 16.2 66 -14.1 6.7
04:45 1024 30.24 853 25.19 -9.7 14.5 69 -14.5 6
04:50 1024 30.24 853 25.19 -10 14 69 -14.6 5.7
04:55 1024 30.24 853 25.19 -9.5 14.9 71 -13.9 7
05:00 1024 30.24 853 25.19 -8.7 16.3 67 -13.8 7.2
05:05 1024 30.24 853 25.19 -8.5 16.6 67 -13.7 7.3
05:10 1024 30.24 853 25.19 -8.9 15.9 68 -13.8 7.2
05:15 1024 30.24 853 25.19 -9 15.8 68 -13.9 6.9
05:20 1024 30.24 853 25.19 -9.3 15.3 69 -14 6.8
05:25 1024 30.24 853 25.19 -9.2 15.4 68 -14.1 6.6
05:30 1024 30.24 853 25.19 -8.8 16.2 66 -14 6.8
05:35 1024 30.24 853 25.19 -8.9 16.1 67 -13.9 7
05:40 1024 30.24 853 25.19 -9 15.7 70 -13.6 7.5
05:45 1024 30.24 853 25.19 -9.2 15.4 69 -14 6.9
05:50 1024 30.24 853 25.19 -9.4 15.1 66 -14.6 5.7
05:55 1024 30.24 853 25.19 -9.8 14.5 67 -14.7 5.5
06:00 1024 30.24 853 25.19 -10.2 13.7 70 -14.7 5.6
06:05 1024 30.24 853 25.19 -10 14.1 72 -14.2 6.5
06:10 1024 30.24 853 25.19 -9.9 14.1 72 -14 6.7
06:15 1024 30.24 853 25.19 -9.8 14.3 70 -14.4 6.1
06:20 1024 30.24 853 25.19 -10 14 74 -13.9 7.1
06:25 1024 30.24 853 25.19 -10.1 13.9 71 -14.3 6.2
06:30 1024 30.24 853 25.19 -9.9 14.2 72 -14.1 6.6
06:35 1024 30.24 853 25.19 -9.8 14.4 71 -14.2 6.5
06:40 1024 30.24 853 25.19 -9.7 14.6 69 -14.3 6.3
06:45 1024 30.24 853 25.19 -9.8 14.4 71 -14.1 6.6
06:50 1024 30.24 853 25.19 -9.9 14.1 68 -14.8 5.4
06:55 1024 30.24 853 25.19 -10 14 69 -14.7 5.6
07:00 1024 30.24 853 25.19 -9.7 14.6 68 -14.5 5.8
07:05 1024 30.24 853 25.19 -9.8 14.4 69 -14.4 6.1
07:10 1024 30.24 853 25.19 -9.8 14.4 70 -14.3 6.3
07:15 1024 30.24 853 25.19 -9.7 14.6 67 -14.6 5.7
07:20 1024 30.24 853 25.19 -9.9 14.1 68 -14.8 5.4
07:25 1024 30.24 853 25.19 -10 13.9 69 -14.8 5.4
07:30 1024 30.24 853 25.19 -9.8 14.3 68 -14.7 5.5
07:35 1024 30.24 853 25.19 -9.6 14.6 69 -14.4 6.1
07:40 1024 30.24 853 25.19 -9.8 14.4 68 -14.6 5.8
07:45 1024 30.24 853 25.19 -9.8 14.3 68 -14.7 5.5
07:50 1024 30.24 853 25.19 -9.7 14.5 67 -14.7 5.5
07:55 1024 30.24 853 25.19 -9.7 14.6 70 -14.1 6.6
08:00 1024 30.24 854 25.22 -9.5 14.8 67 -14.5 5.9
08:05 1024 30.24 854 25.22 -9.6 14.8 67 -14.7 5.6
08:10 1025 30.27 854 25.22 -9.8 14.4 67 -14.7 5.5
08:15 1025 30.27 854 25.22 -9.7 14.5 65 -15.1 4.8
08:20 1025 30.27 854 25.22 -9.9 14.2 65 -15.2 4.7
08:25 1025 30.27 854 25.22 -9.9 14.2 64 -15.4 4.2
08:30 1025 30.27 854 25.22 -11.1 12 69 -15.8 3.5
08:35 1024 30.24 854 25.22 -11.3 11.7 70 -15.7 3.7
08:40 1024 30.24 854 25.22 -10.5 13.2 69 -15.1 4.7
08:45 1024 30.24 854 25.22 -10.2 13.7 69 -14.9 5.3
08:50 1025 30.27 854 25.22 -9.6 14.8 65 -14.9 5.1
08:55 1025 30.27 854 25.22 -9.3 15.4 64 -14.9 5.2
09:00 1025 30.27 854 25.22 -8.8 16.2 63 -14.7 5.5
09:05 1025 30.27 854 25.22 -8.1 17.4 60 -14.5 5.9
09:10 1025 30.27 854 25.22 -8.1 17.4 61 -14.3 6.3
09:15 1025 30.27 854 25.22 -8.3 17.1 63 -14.2 6.5
09:20 1025 30.27 854 25.22 -8.5 16.6 62 -14.5 5.8
09:25 1025 30.27 854 25.22 -8.6 16.6 62 -14.6 5.8
09:30 1025 30.27 854 25.22 -8.3 17 61 -14.5 5.9
09:35 1025 30.27 854 25.22 -7.7 18.1 59 -14.5 5.9
09:40 1025 30.27 854 25.22 -7.4 18.7 59 -14.1 6.7
09:45 1025 30.27 854 25.22 -6.4 20.4 55 -14.1 6.6
09:50 1025 30.27 854 25.22 -6.1 20.9 55 -13.8 7.1
09:55 1025 30.27 854 25.22 -6 21.2 52 -14.4 6
10:00 1025 30.27 854 25.22 -5.7 21.7 52 -14.1 6.6
10:05 1025 30.27 854 25.22 -5.9 21.3 51 -14.5 5.8
10:10 1025 30.27 854 25.22 -5.9 21.4 52 -14.2 6.4
10:15 1025 30.27 855 25.25 -5.9 21.4 51 -14.4 6.1
10:20 1025 30.27 854 25.22 -5.5 22.2 50 -14.3 6.3
10:25 1025 30.27 854 25.22 -6.2 20.9 54 -14.1 6.7
10:30 1025 30.27 854 25.22 -6.6 20 54 -14.6 5.8
10:35 1025 30.27 854 25.22 -6.5 20.3 54 -14.4 6.1
10:40 1025 30.27 854 25.22 -5.9 21.4 52 -14.3 6.2
10:45 1025 30.27 854 25.22 -5 23 48 -14.3 6.2
10:50 1025 30.27 854 25.22 -4.6 23.8 48 -13.9 6.9
10:55 1025 30.27 854 25.22 -4.1 24.7 48 -13.6 7.6
11:00 1025 30.27 854 25.22 -4.3 24.3 48 -13.7 7.4
11:05 1025 30.27 854 25.22 -3.7 25.3 47 -13.4 7.8
11:10 1025 30.27 854 25.22 -3.6 25.5 47 -13.3 8
11:15 1025 30.27 854 25.22 -4.1 24.7 48 -13.6 7.4
11:20 1025 30.27 854 25.22 -4.2 24.5 47 -13.8 7.1
11:25 1025 30.27 854 25.22 -4 24.7 47 -13.7 7.4
11:30 1025 30.27 854 25.22 -4.3 24.3 47 -13.9 7
11:35 1025 30.27 854 25.22 -4.4 24.1 49 -13.7 7.4
11:40 1025 30.27 854 25.22 -3.9 25 48 -13.3 8
11:45 1025 30.27 854 25.22 -4 24.9 48 -13.5 7.7
11:50 1025 30.27 854 25.22 -4 24.7 48 -13.4 7.8
11:55 1025 30.27 854 25.22 -4 24.9 51 -12.7 9.1
12:00 1025 30.27 854 25.22 -3.6 25.5 47 -13.3 8.1
12:05 1025 30.27 854 25.22 -3.5 25.7 48 -13 8.6
12:10 1025 30.27 854 25.22 -3.7 25.4 48 -13.1 8.3
12:15 1024 30.24 854 25.22 -3.6 25.5 49 -12.8 9
12:20 1024 30.24 854 25.22 -3.7 25.3 49 -12.9 8.8
12:25 1024 30.24 854 25.22 -3.9 24.9 50 -12.8 8.9
12:30 1024 30.24 854 25.22 -3.8 25.1 48 -13.4 7.9
12:35 1024 30.24 854 25.22 -3.7 25.3 47 -13.4 7.8
12:40 1024 30.24 854 25.22 -3.9 25.1 49 -13.2 8.3
12:45 1024 30.24 853 25.19 -3.9 25 50 -13 8.7
12:50 1024 30.24 854 25.22 -3.4 25.9 47 -13.1 8.4
12:55 1024 30.24 854 25.22 -3 26.6 47 -12.7 9.2
13:00 1024 30.24 853 25.19 -2.6 27.3 47 -12.5 9.6
13:05 1024 30.24 854 25.22 -2.3 27.9 46 -12.5 9.6
13:10 1024 30.24 854 25.22 -2.2 28 46 -12.5 9.6
13:15 1024 30.24 854 25.22 -2.2 28 44 -12.9 8.8
13:20 1024 30.24 854 25.22 -1.9 28.7 43 -12.9 8.7
13:25 1024 30.24 854 25.22 -1.6 29.1 44 -12.5 9.5
13:30 1024 30.24 853 25.19 -1.5 29.2 42 -12.9 8.8
13:35 1024 30.24 854 25.22 -1.5 29.3 42 -12.7 9.1
13:40 1024 30.24 853 25.19 -1.3 29.7 42 -12.7 9.1
13:45 1024 30.24 854 25.22 -1.2 29.9 42 -12.6 9.3
13:50 1024 30.24 854 25.22 -1.2 29.8 43 -12.4 9.7
13:55 1024 30.24 853 25.19 -1.3 29.7 43 -12.4 9.6
14:00 1024 30.24 853 25.19 -1.4 29.4 44 -12.2 10
14:05 1024 30.24 853 25.19 -1.2 29.8 43 -12.2 10
14:10 1024 30.24 853 25.19 -1.2 29.8 44 -11.9 10.6
14:15 1024 30.24 853 25.19 -1.1 29.9 44 -11.9 10.7
14:20 1024 30.24 853 25.19 -1.1 30.1 44 -11.8 10.7
14:25 1024 30.24 853 25.19 -1 30.1 44 -11.8 10.8
14:30 1024 30.24 853 25.19 -1.2 29.8 46 -11.4 11.5
14:35 1024 30.24 853 25.19 -1.1 30 51 -10 14.1
14:40 1024 30.24 853 25.19 -1 30.2 54 -9.3 15.3
14:45 1024 30.24 853 25.19 -1.2 29.9 56 -8.9 16
14:50 1024 30.24 853 25.19 -1.4 29.5 57 -8.8 16.2
14:55 1024 30.24 853 25.19 -1.2 29.9 56 -8.8 16.1
15:00 1024 30.24 853 25.19 -1.1 29.9 56 -8.8 16.2
15:05 1024 30.24 853 25.19 -1.1 30 57 -8.7 16.4
15:10 1024 30.24 853 25.19 -1.4 29.5 58 -8.7 16.4
15:15 1024 30.24 853 25.19 -1 30.1 56 -8.7 16.3
15:20 1024 30.24 853 25.19 -0.6 30.9 54 -8.8 16.2
15:25 1024 30.24 853 25.19 -0.4 31.3 52 -9.1 15.7
15:30 1024 30.24 853 25.19 -0.1 31.8 51 -9.1 15.6
15:35 1024 30.24 853 25.19 0.1 32.2 48 -9.7 14.6
15:40 1024 30.24 853 25.19 -0 31.9 47 -10.1 13.8
15:45 1024 30.24 853 25.19 -0.4 31.4 47 -10.2 13.6
15:50 1024 30.24 853 25.19 -0.3 31.5 48 -10.1 13.8
15:55 1024 30.24 853 25.19 -0.4 31.4 47 -10.3 13.4
16:00 1024 30.24 853 25.19 -0.4 31.2 47 -10.4 13.3
16:05 1024 30.24 853 25.19 -0.5 31.2 47 -10.4 13.3
16:10 1024 30.24 853 25.19 -0.4 31.3 47 -10.3 13.4
16:15 1024 30.24 853 25.19 -0.5 31.2 48 -10.1 13.9
16:20 1024 30.24 853 25.19 -0.6 30.9 48 -10.3 13.5
16:25 1024 30.24 853 25.19 -0.8 30.6 49 -10.3 13.4
16:30 1024 30.24 853 25.19 -0.8 30.5 48 -10.4 13.2
16:35 1024 30.24 853 25.19 -0.9 30.4 48 -10.6 13
16:40 1024 30.24 853 25.19 -1 30.3 49 -10.4 13.3
16:45 1024 30.24 853 25.19 -1 30.2 49 -10.4 13.3
16:50 1024 30.24 853 25.19 -1 30.2 49 -10.5 13.1
16:55 1024 30.24 853 25.19 -1 30.2 49 -10.4 13.3
17:00 1024 30.24 853 25.19 -1.1 30.1 49 -10.4 13.3
17:05 1024 30.24 853 25.19 -1.1 30.1 50 -10.3 13.5
17:10 1024 30.24 853 25.19 -1.1 30.1 50 -10.3 13.5
17:15 1024 30.24 853 25.19 -1.2 29.8 50 -10.4 13.3
17:20 1024 30.24 853 25.19 -1.1 29.9 50 -10.2 13.6
17:25 1024 30.24 853 25.19 -1.1 30 50 -10.2 13.6
17:30 1024 30.24 853 25.19 -1.2 29.9 51 -10.1 13.9
17:35 1024 30.24 853 25.19 -1.2 29.8 51 -10 13.9
17:40 1024 30.24 853 25.19 -1.2 29.8 51 -10.1 13.9
17:45 1024 30.24 853 25.19 -1.3 29.7 51 -10.1 13.7
17:50 1024 30.24 853 25.19 -1.3 29.7 51 -10.1 13.9
17:55 1023 30.21 853 25.19 -1.3 29.7 52 -9.9 14.2
18:00 1024 30.24 853 25.19 -1.3 29.7 52 -9.9 14.1
18:05 1023 30.21 853 25.19 -1.3 29.6 53 -9.7 14.5
18:10 1024 30.24 853 25.19 -1.3 29.6 53 -9.7 14.5
18:15 1024 30.24 853 25.19 -1.3 29.7 53 -9.6 14.8
18:20 1024 30.24 853 25.19 -1.2 29.8 54 -9.4 15.1
18:25 1024 30.24 853 25.19 -1.2 29.8 54 -9.4 15.2
18:30 1024 30.24 853 25.19 -1.2 29.9 54 -9.3 15.3
18:35 1024 30.24 853 25.19 -1.2 29.9 55 -9.2 15.4
18:40 1024 30.24 853 25.19 -1.1 30 55 -9.1 15.6
18:45 1024 30.24 853 25.19 -1.2 29.9 55 -9 15.7
18:50 1024 30.24 853 25.19 -1.2 29.9 55 -9 15.8
18:55 1024 30.24 853 25.19 -1.1 30 56 -8.8 16.2
19:00 1024 30.24 853 25.19 -1.1 30 56 -8.8 16.2
19:05 1024 30.24 853 25.19 -1.1 30 56 -8.8 16.2
19:10 1024 30.24 853 25.19 -1.2 29.8 57 -8.7 16.4
19:15 1024 30.24 853 25.19 -1.3 29.7 57 -8.8 16.2
19:20 1024 30.24 853 25.19 -1.2 29.8 56 -8.8 16.1
19:25 1024 30.24 853 25.19 -1.2 29.8 56 -9 15.8
19:30 1024 30.24 853 25.19 -1.3 29.6 57 -8.9 16
19:35 1024 30.24 853 25.19 -1.3 29.6 56 -8.9 16
19:40 1024 30.24 853 25.19 -1.4 29.5 55 -9.3 15.3
19:45 1023 30.21 853 25.19 -1.4 29.5 56 -9 15.8
19:50 1023 30.21 853 25.19 -1.2 29.8 55 -9 15.8
19:55 1023 30.21 853 25.19 -1 30.1 55 -8.9 16
20:00 1023 30.21 853 25.19 -1 30.3 55 -8.9 15.9
20:05 1023 30.21 853 25.19 -1 30.2 55 -9 15.8
20:10 1023 30.21 853 25.19 -1 30.2 55 -9 15.7
20:15 1023 30.21 853 25.19 -0.9 30.3 54 -9 15.7
20:20 1023 30.21 853 25.19 -0.9 30.3 53 -9.3 15.3
20:25 1023 30.21 853 25.19 -0.8 30.5 54 -9.1 15.7
20:30 1023 30.21 853 25.19 -0.9 30.4 54 -9.1 15.6
20:35 1023 30.21 853 25.19 -0.8 30.5 54 -9.1 15.6
20:40 1023 30.21 853 25.19 -0.8 30.6 53 -9.1 15.6
20:45 1024 30.24 853 25.19 -0.8 30.6 53 -9.1 15.6
20:50 1023 30.21 853 25.19 -0.7 30.7 54 -9 15.9
20:55 1023 30.21 853 25.19 -0.7 30.7 55 -8.7 16.4
21:00 1023 30.21 853 25.19 -0.7 30.7 55 -8.6 16.5
21:05 1023 30.21 853 25.19 -0.7 30.8 54 -9 15.8
21:10 1024 30.24 853 25.19 -0.6 30.8 54 -8.8 16.2
21:15 1023 30.21 853 25.19 -0.7 30.8 54 -8.9 16
21:20 1023 30.21 853 25.19 -0.7 30.7 54 -8.9 16
21:25 1023 30.21 852 25.16 -0.7 30.7 54 -8.8 16.2
21:30 1023 30.21 853 25.19 -0.7 30.7 56 -8.6 16.6
21:35 1023 30.21 853 25.19 -0.7 30.7 56 -8.4 16.9
21:40 1023 30.21 853 25.19 -0.6 30.9 56 -8.3 17
21:45 1023 30.21 853 25.19 -0.6 30.9 57 -8.2 17.2
21:50 1023 30.21 853 25.19 -0.7 30.8 57 -8.2 17.3
21:55 1024 30.24 853 25.19 -0.6 30.9 56 -8.3 17.1
22:00 1023 30.21 853 25.19 -0.6 30.9 56 -8.3 17
22:05 1023 30.21 853 25.19 -0.7 30.8 56 -8.4 16.9
22:10 1023 30.21 853 25.19 -0.7 30.7 57 -8.3 17
22:15 1024 30.24 853 25.19 -0.7 30.8 57 -8.2 17.2
22:20 1024 30.24 853 25.19 -0.8 30.6 58 -8.1 17.5
22:25 1024 30.24 853 25.19 -0.7 30.7 57 -8.1 17.4
22:30 1024 30.24 853 25.19 -0.7 30.7 58 -8 17.6
22:35 1024 30.24 853 25.19 -0.6 30.8 58 -8 17.6
22:40 1024 30.24 853 25.19 -0.7 30.8 59 -7.7 18.1
22:45 1024 30.24 853 25.19 -0.7 30.7 58 -8.1 17.5
22:50 1024 30.24 853 25.19 -0.7 30.7 59 -7.8 17.9
22:55 1024 30.24 853 25.19 -0.7 30.7 59 -7.7 18.1
23:00 1024 30.24 853 25.19 -0.8 30.6 59 -7.8 18
23:05 1023 30.21 853 25.19 -0.8 30.6 59 -7.8 18
23:10 1023 30.21 853 25.19 -0.8 30.6 59 -7.8 18
23:15 1023 30.21 853 25.19 -0.8 30.6 59 -7.8 18
23:20 1023 30.21 853 25.19 -0.8 30.6 60 -7.6 18.3
23:25 1023 30.21 853 25.19 -0.8 30.6 60 -7.7 18.2
23:30 1023 30.21 853 25.19 -0.8 30.6 60 -7.7 18.1
23:35 1023 30.21 852 25.16 -0.7 30.7 59 -7.7 18.1
23:40 1023 30.21 852 25.16 -0.8 30.6 59 -7.8 17.9
23:45 1023 30.21 852 25.16 -0.7 30.7 59 -7.8 18
23:50 1023 30.21 852 25.16 -0.7 30.7 59 -7.8 17.9
23:55 1023 30.21 852 25.16 -0.7 30.7 59 -7.8 18
24:00 1023 30.21 852 25.16 -0.7 30.7 60 -7.6 18.3